Terminal Aerodrome Forecast
Issued by NWS Mt. Holly, NJ

Home | Current Version | Previous Version | Text Only | Print | Product List | Glossary On
Versions: 1 2 3 4 5 6 7 8 9 10 11 12 13 14 15 16 17
808
FTUS41 KPHI 241134
TAFRDG
TAF
KRDG 241134Z 2412/2512 VRB04KT P6SM BKN110
     FM241700 08006KT P6SM OVC080 PROB30 2421/2501 6SM -RA BR OVC040
     FM250100 08008KT 6SM -RA BR OVC050
     FM250500 08010KT 6SM -RA BR OVC020=

USA.gov is the U.S. government's official web portal to all federal, state and local government web resources and services.